createdAt,value
2022-12-22T00:00:00.426Z,9.1
2022-12-22T00:01:01.012Z,9.2
2022-12-22T00:02:00.865Z,9.1
2022-12-22T00:03:00.403Z,9.2
2022-12-22T00:04:00.887Z,9.1
2022-12-22T00:05:00.480Z,9.1
2022-12-22T00:06:00.053Z,9.1
2022-12-22T00:07:00.634Z,9.1
2022-12-22T00:08:00.258Z,9
2022-12-22T00:09:05.377Z,9.1
2022-12-22T00:10:00.348Z,9.1
2022-12-22T00:11:00.965Z,9.2
2022-12-22T00:12:00.553Z,9.1
2022-12-22T00:13:00.160Z,9.2
2022-12-22T00:14:00.720Z,9.2
2022-12-22T00:15:00.312Z,9.2
2022-12-22T00:16:00.933Z,9.1
2022-12-22T00:17:00.591Z,9.1
2022-12-22T00:18:00.116Z,9.1
2022-12-22T00:19:00.699Z,9.1
2022-12-22T00:20:00.290Z,9.1
2022-12-22T00:21:00.951Z,9.1
2022-12-22T00:22:00.533Z,9
2022-12-22T00:23:00.098Z,9
2022-12-22T00:24:00.717Z,8.9
2022-12-22T00:25:00.307Z,8.9
2022-12-22T00:26:00.923Z,8.9
2022-12-22T00:27:00.509Z,8.9
2022-12-22T00:28:00.103Z,8.9
2022-12-22T00:29:00.676Z,8.8
2022-12-22T00:30:00.267Z,8.9
2022-12-22T00:31:00.889Z,8.9
2022-12-22T00:32:00.513Z,8.9
2022-12-22T00:33:00.103Z,8.9
2022-12-22T00:34:00.691Z,9
2022-12-22T00:35:00.295Z,9
2022-12-22T00:36:00.879Z,8.9
2022-12-22T00:37:00.489Z,9
2022-12-22T00:38:00.087Z,9
2022-12-22T00:39:00.623Z,9
2022-12-22T00:40:00.242Z,9
2022-12-22T00:41:00.797Z,9
2022-12-22T00:42:00.419Z,8.9
2022-12-22T00:43:00.970Z,8.9
2022-12-22T00:44:00.557Z,9
2022-12-22T00:45:00.165Z,8.9
2022-12-22T00:46:00.778Z,9
2022-12-22T00:47:00.405Z,9
2022-12-22T00:48:00.954Z,8.9
2022-12-22T00:49:00.569Z,9
2022-12-22T00:50:00.168Z,9
2022-12-22T00:51:00.759Z,9
2022-12-22T00:52:00.362Z,8.9
2022-12-22T00:53:00.945Z,8.9
2022-12-22T00:54:00.554Z,8.9
2022-12-22T00:55:00.128Z,9
2022-12-22T00:56:00.753Z,9
2022-12-22T00:57:00.351Z,9
2022-12-22T00:58:00.933Z,9
2022-12-22T00:59:00.522Z,8.9
2022-12-22T01:00:00.253Z,8.9
2022-12-22T01:01:00.777Z,8.9
2022-12-22T01:02:00.510Z,8.8
2022-12-22T01:03:01.009Z,8.9
2022-12-22T01:04:00.586Z,8.8
2022-12-22T01:05:00.193Z,8.9
2022-12-22T01:06:00.753Z,8.9
2022-12-22T01:07:00.375Z,8.9
2022-12-22T01:08:00.924Z,8.9
2022-12-22T01:09:00.535Z,9
2022-12-22T01:10:00.111Z,9.1
2022-12-22T01:11:00.689Z,9
2022-12-22T01:12:00.331Z,9
2022-12-22T01:13:00.866Z,9
2022-12-22T01:14:00.458Z,9.1
2022-12-22T01:15:00.049Z,9.1
2022-12-22T01:16:00.651Z,9.1
2022-12-22T01:17:00.280Z,9.1
2022-12-22T01:18:00.872Z,9.1
2022-12-22T01:19:00.466Z,9.1
2022-12-22T01:20:00.056Z,9.1
2022-12-22T01:21:00.689Z,9.1
2022-12-22T01:22:00.275Z,9.1
2022-12-22T01:23:00.878Z,9.1
2022-12-22T01:24:00.495Z,9.2
2022-12-22T01:25:00.089Z,9.1
2022-12-22T01:26:00.639Z,9.1
2022-12-22T01:27:00.231Z,9.1
2022-12-22T01:28:00.876Z,9.1
2022-12-22T01:29:00.469Z,9.1
2022-12-22T01:30:00.122Z,9.1
2022-12-22T01:31:00.695Z,9.1
2022-12-22T01:32:00.291Z,9.1
2022-12-22T01:33:00.860Z,9.1
2022-12-22T01:34:00.452Z,9
2022-12-22T01:35:01.040Z,9
2022-12-22T01:36:00.641Z,9
2022-12-22T01:37:00.231Z,9.1
2022-12-22T01:38:00.822Z,9
2022-12-22T01:39:00.427Z,9
2022-12-22T01:40:01.035Z,9
2022-12-22T01:41:00.628Z,9
2022-12-22T01:42:00.213Z,9
2022-12-22T01:43:00.790Z,9
2022-12-22T01:44:00.412Z,9
2022-12-22T01:45:00.982Z,9
2022-12-22T01:46:00.635Z,9.1
2022-12-22T01:47:00.194Z,9
2022-12-22T01:48:00.772Z,8.9
2022-12-22T01:49:00.363Z,8.9
2022-12-22T01:50:00.974Z,8.9
2022-12-22T01:51:00.591Z,9
2022-12-22T01:52:00.174Z,8.9
2022-12-22T01:53:00.756Z,9
2022-12-22T01:54:00.356Z,9
2022-12-22T01:55:00.940Z,9
2022-12-22T01:56:00.556Z,8.9
2022-12-22T01:57:00.131Z,9
2022-12-22T01:58:00.724Z,9
2022-12-22T01:59:00.312Z,9
2022-12-22T02:00:00.963Z,9
2022-12-22T02:01:00.533Z,9
2022-12-22T02:02:00.339Z,9
2022-12-22T02:03:00.832Z,9
2022-12-22T02:04:00.419Z,9
2022-12-22T02:05:00.937Z,9
2022-12-22T02:06:00.529Z,9
2022-12-22T02:07:00.583Z,9
2022-12-22T02:08:00.335Z,9.1
2022-12-22T02:09:00.922Z,9
2022-12-22T02:10:00.513Z,9
2022-12-22T02:11:00.089Z,9.1
2022-12-22T02:12:00.685Z,9.1
2022-12-22T02:13:00.276Z,9.1
2022-12-22T02:14:00.846Z,9.1
2022-12-22T02:15:00.436Z,9.1
2022-12-22T02:16:01.107Z,9.1
2022-12-22T02:17:00.752Z,9.1
2022-12-22T02:18:00.252Z,9.1
2022-12-22T02:19:00.823Z,9.1
2022-12-22T02:20:00.408Z,9.1
2022-12-22T02:21:00.983Z,9.1
2022-12-22T02:22:00.633Z,9.1
2022-12-22T02:23:00.204Z,9.1
2022-12-22T02:24:00.801Z,9.2
2022-12-22T02:25:00.416Z,9.2
2022-12-22T02:26:00.981Z,9.2
2022-12-22T02:27:00.583Z,9.2
2022-12-22T02:28:00.181Z,9.2
2022-12-22T02:29:00.789Z,9.2
2022-12-22T02:30:00.382Z,9.2
2022-12-22T02:31:00.994Z,9.1
2022-12-22T02:32:00.632Z,9.1
2022-12-22T02:33:05.344Z,9.2
2022-12-22T02:34:00.752Z,9.2
2022-12-22T02:35:00.338Z,9.1
2022-12-22T02:36:00.914Z,9.1
2022-12-22T02:37:00.606Z,9.1
2022-12-22T02:38:00.095Z,9.1
2022-12-22T02:39:00.657Z,9.1
2022-12-22T02:40:00.248Z,9
2022-12-22T02:41:00.837Z,9.1
2022-12-22T02:42:00.467Z,9.1
2022-12-22T02:43:01.018Z,9.1
2022-12-22T02:44:00.604Z,9.1
2022-12-22T02:45:00.201Z,9.1
2022-12-22T02:46:00.771Z,9.1
2022-12-22T02:47:00.495Z,9.1
2022-12-22T02:48:00.964Z,9.1
2022-12-22T02:49:00.552Z,9.1
2022-12-22T02:50:00.193Z,9.1
2022-12-22T02:51:00.713Z,9.1
2022-12-22T02:52:00.326Z,9.1
2022-12-22T02:53:00.875Z,9.1
2022-12-22T02:54:00.481Z,9.2
2022-12-22T02:55:00.066Z,9.2
2022-12-22T02:56:00.626Z,9.1
2022-12-22T02:57:00.301Z,9.2
2022-12-22T02:58:00.857Z,9.1
2022-12-22T02:59:00.471Z,9.2
2022-12-22T03:00:01.034Z,9.2
2022-12-22T03:01:00.622Z,9.1
2022-12-22T03:02:00.446Z,9.1
2022-12-22T03:03:01.080Z,9.1
2022-12-22T03:04:00.619Z,9.1
2022-12-22T03:05:00.080Z,9.1
2022-12-22T03:06:00.651Z,9.2
2022-12-22T03:07:00.241Z,9.2
2022-12-22T03:08:06.187Z,9.2
2022-12-22T03:09:00.386Z,9.1
2022-12-22T03:10:00.987Z,9.2
2022-12-22T03:11:00.607Z,9.1
2022-12-22T03:12:00.201Z,9.1
2022-12-22T03:13:00.783Z,9.1
2022-12-22T03:14:00.377Z,9.1
2022-12-22T03:15:00.952Z,9.1
2022-12-22T03:16:00.593Z,9.1
2022-12-22T03:17:00.118Z,9.1
2022-12-22T03:18:00.697Z,9.1
2022-12-22T03:19:00.285Z,9.2
2022-12-22T03:20:00.901Z,9.2
2022-12-22T03:21:00.513Z,9.2
2022-12-22T03:22:00.151Z,9.2
2022-12-22T03:23:00.657Z,9.2
2022-12-22T03:24:00.246Z,9.3
2022-12-22T03:25:00.826Z,9.3
2022-12-22T03:26:00.431Z,9.3
2022-12-22T03:27:01.023Z,9.3
2022-12-22T03:28:00.609Z,9.2
2022-12-22T03:29:00.212Z,9.3
2022-12-22T03:30:00.782Z,9.3
2022-12-22T03:31:00.491Z,9.3
2022-12-22T03:32:01.065Z,9.3
2022-12-22T03:33:00.753Z,9.3
2022-12-22T03:34:00.192Z,9.3
2022-12-22T03:35:00.771Z,9.3
2022-12-22T03:36:00.382Z,9.3
2022-12-22T03:37:00.944Z,9.3
2022-12-22T03:38:00.554Z,9.3
2022-12-22T03:39:00.119Z,9.3
2022-12-22T03:40:00.701Z,9.3
2022-12-22T03:41:00.287Z,9.3
2022-12-22T03:42:00.864Z,9.3
2022-12-22T03:43:00.471Z,9.3
2022-12-22T03:44:01.026Z,9.3
2022-12-22T03:45:00.643Z,9.3
2022-12-22T03:46:00.256Z,9.3
2022-12-22T03:47:00.951Z,9.3
2022-12-22T03:48:00.511Z,9.4
2022-12-22T03:49:00.108Z,9.3
2022-12-22T03:50:00.640Z,9.3
2022-12-22T03:51:00.234Z,9.4
2022-12-22T03:52:00.828Z,9.4
2022-12-22T03:53:00.437Z,9.4
2022-12-22T03:54:00.988Z,9.4
2022-12-22T03:55:00.601Z,9.4
2022-12-22T03:56:04.177Z,9.4
2022-12-22T03:57:00.740Z,9.4
2022-12-22T03:58:00.379Z,9.4
2022-12-22T03:59:00.938Z,9.4
2022-12-22T04:00:00.547Z,9.5
2022-12-22T04:01:00.255Z,9.4
2022-12-22T04:02:00.900Z,9.5
2022-12-22T04:03:00.539Z,9.5
2022-12-22T04:04:00.963Z,9.5
2022-12-22T04:05:00.555Z,9.6
2022-12-22T04:06:00.159Z,9.4
2022-12-22T04:07:00.732Z,9.4
2022-12-22T04:08:00.376Z,9.4
2022-12-22T04:09:00.911Z,9.4
2022-12-22T04:10:00.499Z,9.4
2022-12-22T04:11:00.097Z,9.4
2022-12-22T04:12:00.680Z,9.4
2022-12-22T04:13:00.271Z,9.4
2022-12-22T04:14:00.848Z,9.5
2022-12-22T04:15:00.436Z,9.5
2022-12-22T04:16:01.079Z,9.5
2022-12-22T04:17:00.801Z,9.5
2022-12-22T04:18:00.258Z,9.5
2022-12-22T04:19:00.818Z,9.5
2022-12-22T04:20:00.410Z,9.5
2022-12-22T04:21:00.983Z,9.4
2022-12-22T04:22:00.599Z,9.5
2022-12-22T04:23:00.310Z,9.5
2022-12-22T04:24:00.787Z,9.5
2022-12-22T04:25:00.378Z,9.5
2022-12-22T04:26:00.956Z,9.5
2022-12-22T04:27:00.589Z,9.5
2022-12-22T04:28:00.182Z,9.5
2022-12-22T04:29:00.796Z,9.5
2022-12-22T04:30:00.416Z,9.5
2022-12-22T04:31:00.969Z,9.5
2022-12-22T04:32:00.683Z,9.5
2022-12-22T04:33:00.230Z,9.5
2022-12-22T04:34:00.795Z,9.6
2022-12-22T04:35:00.428Z,9.5
2022-12-22T04:36:00.961Z,9.5
2022-12-22T04:37:10.022Z,9.5
2022-12-22T04:38:00.121Z,9.5
2022-12-22T04:39:00.702Z,9.5
2022-12-22T04:40:00.326Z,9.6
2022-12-22T04:41:00.873Z,9.7
2022-12-22T04:42:00.490Z,9.7
2022-12-22T04:43:00.050Z,9.7
2022-12-22T04:44:00.638Z,9.7
2022-12-22T04:45:00.233Z,9.7
2022-12-22T04:46:00.991Z,9.7
2022-12-22T04:47:00.496Z,9.7
2022-12-22T04:48:00.077Z,9.7
2022-12-22T04:49:00.901Z,9.8
2022-12-22T04:50:00.317Z,9.7
2022-12-22T04:51:00.887Z,9.8
2022-12-22T04:52:00.486Z,9.7
2022-12-22T04:53:00.098Z,9.6
2022-12-22T04:54:00.631Z,9.7
2022-12-22T04:55:00.250Z,9.7
2022-12-22T04:56:00.839Z,9.7
2022-12-22T04:57:00.424Z,9.7
2022-12-22T04:58:01.005Z,9.7
2022-12-22T04:59:00.592Z,9.7
2022-12-22T05:00:00.215Z,9.7
2022-12-22T05:01:00.799Z,9.7
2022-12-22T05:02:00.539Z,9.7
2022-12-22T05:03:01.238Z,9.7
2022-12-22T05:04:00.931Z,9.6
2022-12-22T05:05:00.271Z,9.7
2022-12-22T05:06:00.845Z,9.6
2022-12-22T05:07:00.458Z,9.7
2022-12-22T05:08:01.076Z,9.7
2022-12-22T05:09:00.741Z,9.6
2022-12-22T05:10:00.305Z,9.7
2022-12-22T05:11:00.848Z,9.6
2022-12-22T05:12:00.462Z,9.7
2022-12-22T05:13:01.047Z,9.7
2022-12-22T05:14:05.329Z,9.7
2022-12-22T05:15:00.245Z,9.8
2022-12-22T05:16:00.851Z,9.8
2022-12-22T05:17:00.485Z,9.7
2022-12-22T05:18:01.169Z,9.7
2022-12-22T05:19:00.780Z,9.8
2022-12-22T05:20:00.277Z,9.8
2022-12-22T05:21:00.843Z,9.8
2022-12-22T05:22:00.448Z,9.8
2022-12-22T05:23:01.018Z,9.8
2022-12-22T05:24:00.656Z,9.8
2022-12-22T05:25:00.242Z,9.8
2022-12-22T05:26:00.824Z,9.8
2022-12-22T05:27:00.437Z,9.8
2022-12-22T05:28:01.031Z,9.8
2022-12-22T05:29:00.632Z,9.8
2022-12-22T05:30:00.235Z,9.8
2022-12-22T05:31:00.829Z,9.8
2022-12-22T05:32:00.451Z,9.8
2022-12-22T05:33:01.001Z,9.8
2022-12-22T05:34:00.589Z,9.8
2022-12-22T05:35:00.179Z,9.8
2022-12-22T05:36:00.761Z,9.8
2022-12-22T05:37:00.370Z,9.7
2022-12-22T05:38:01.065Z,9.7
2022-12-22T05:39:00.579Z,9.7
2022-12-22T05:40:00.197Z,9.7
2022-12-22T05:41:04.224Z,9.7
2022-12-22T05:42:00.285Z,9.7
2022-12-22T05:43:00.900Z,9.7
2022-12-22T05:44:00.522Z,9.7
2022-12-22T05:45:00.130Z,9.7
2022-12-22T05:46:00.701Z,9.8
2022-12-22T05:47:00.302Z,9.8
2022-12-22T05:48:00.921Z,9.9
2022-12-22T05:49:00.510Z,9.9
2022-12-22T05:50:00.158Z,9.9
2022-12-22T05:51:00.688Z,9.9
2022-12-22T05:52:00.287Z,10
2022-12-22T05:53:00.850Z,10
2022-12-22T05:54:00.438Z,9.9
2022-12-22T05:55:01.047Z,10
2022-12-22T05:56:00.640Z,10
2022-12-22T05:57:00.227Z,10
2022-12-22T05:58:00.966Z,10
2022-12-22T05:59:00.473Z,10
2022-12-22T06:00:00.155Z,9.9
2022-12-22T06:01:00.643Z,10
2022-12-22T06:02:00.432Z,10
2022-12-22T06:03:00.891Z,10
2022-12-22T06:04:00.991Z,10
2022-12-22T06:05:00.668Z,10
2022-12-22T06:06:00.277Z,9.9
2022-12-22T06:07:00.875Z,9.9
2022-12-22T06:08:00.469Z,10
2022-12-22T06:09:00.078Z,10
2022-12-22T06:10:01.906Z,10
2022-12-22T06:11:00.205Z,10
2022-12-22T06:12:00.807Z,10
2022-12-22T06:13:00.441Z,10
2022-12-22T06:14:00.982Z,10
2022-12-22T06:15:00.591Z,10
2022-12-22T06:16:00.279Z,9.9
2022-12-22T06:17:00.754Z,9.9
2022-12-22T06:18:00.343Z,9.9
2022-12-22T06:19:00.942Z,9.9
2022-12-22T06:20:00.533Z,9.9
2022-12-22T06:21:00.159Z,9.8
2022-12-22T06:22:00.703Z,9.8
2022-12-22T06:23:00.367Z,9.8
2022-12-22T06:24:00.923Z,9.8
2022-12-22T06:25:00.511Z,9.8
2022-12-22T06:26:00.095Z,9.8
2022-12-22T06:27:00.692Z,9.7
2022-12-22T06:28:00.280Z,9.7
2022-12-22T06:29:00.868Z,9.7
2022-12-22T06:30:00.475Z,9.6
2022-12-22T06:31:01.117Z,9.6
2022-12-22T06:32:00.819Z,9.5
2022-12-22T06:33:00.287Z,9.5
2022-12-22T06:34:00.870Z,9.4
2022-12-22T06:35:00.464Z,9.5
2022-12-22T06:36:00.049Z,9.5
2022-12-22T06:37:00.667Z,9.6
2022-12-22T06:38:00.265Z,9.7
2022-12-22T06:39:00.846Z,9.7
2022-12-22T06:40:00.447Z,9.7
2022-12-22T06:41:01.029Z,9.7
2022-12-22T06:42:00.656Z,9.7
2022-12-22T06:43:06.025Z,9.7
2022-12-22T06:44:00.785Z,9.7
2022-12-22T06:45:00.387Z,9.6
2022-12-22T06:46:00.967Z,9.5
2022-12-22T06:47:00.628Z,9.6
2022-12-22T06:48:00.205Z,9.5
2022-12-22T06:49:00.784Z,9.5
2022-12-22T06:50:00.383Z,9.5
2022-12-22T06:51:00.957Z,9.5
2022-12-22T06:52:00.544Z,9.4
2022-12-22T06:53:00.139Z,9.4
2022-12-22T06:54:00.717Z,9.4
2022-12-22T06:55:00.310Z,9.4
2022-12-22T06:56:00.895Z,9.4
2022-12-22T06:57:00.490Z,9.4
2022-12-22T06:58:00.106Z,9.3
2022-12-22T06:59:00.810Z,9.4
2022-12-22T07:00:00.312Z,9.4
2022-12-22T07:01:00.888Z,9.3
2022-12-22T07:02:00.651Z,9.3
2022-12-22T07:03:00.346Z,9.3
2022-12-22T07:04:00.739Z,9.3
2022-12-22T07:05:00.322Z,9.3
2022-12-22T07:06:00.863Z,9.3
2022-12-22T07:07:00.454Z,9.4
2022-12-22T07:08:06.095Z,9.4
2022-12-22T07:09:00.594Z,9.4
2022-12-22T07:10:00.229Z,9.5
2022-12-22T07:11:00.772Z,9.5
2022-12-22T07:12:00.385Z,9.5
2022-12-22T07:13:00.979Z,9.5
2022-12-22T07:14:00.594Z,9.5
2022-12-22T07:15:00.202Z,9.5
2022-12-22T07:16:01.820Z,9.5
2022-12-22T07:17:00.474Z,9.6
2022-12-22T07:18:01.007Z,9.5
2022-12-22T07:19:00.616Z,9.6
2022-12-22T07:20:00.235Z,9.5
2022-12-22T07:21:00.792Z,9.5
2022-12-22T07:22:00.389Z,9.6
2022-12-22T07:23:00.975Z,9.5
2022-12-22T07:24:00.693Z,9.4
2022-12-22T07:25:00.237Z,9.3
2022-12-22T07:26:00.801Z,9.5
2022-12-22T07:27:00.402Z,9.5
2022-12-22T07:28:00.985Z,9.6
2022-12-22T07:29:00.579Z,9.6
2022-12-22T07:30:00.235Z,9.6
2022-12-22T07:31:00.807Z,9.6
2022-12-22T07:32:00.421Z,9.6
2022-12-22T07:33:01.006Z,9.7
2022-12-22T07:34:00.599Z,9.7
2022-12-22T07:35:05.144Z,9.7
2022-12-22T07:36:00.780Z,9.7
2022-12-22T07:37:00.373Z,9.7
2022-12-22T07:38:00.960Z,9.7
2022-12-22T07:39:00.576Z,9.7
2022-12-22T07:40:00.165Z,9.7
2022-12-22T07:41:04.787Z,9.7
2022-12-22T07:42:00.294Z,9.7
2022-12-22T07:43:00.880Z,9.6
2022-12-22T07:44:00.477Z,9.6
2022-12-22T07:45:00.055Z,9.6
2022-12-22T07:46:00.738Z,9.6
2022-12-22T07:47:00.373Z,9.6
2022-12-22T07:48:00.863Z,9.6
2022-12-22T07:49:00.463Z,9.6
2022-12-22T07:50:01.045Z,9.6
2022-12-22T07:51:00.650Z,9.6
2022-12-22T07:52:00.270Z,9.6
2022-12-22T07:53:00.843Z,9.7
2022-12-22T07:54:00.470Z,9.6
2022-12-22T07:55:01.014Z,9.7
2022-12-22T07:56:00.605Z,9.6
2022-12-22T07:57:00.199Z,9.6
2022-12-22T07:58:00.804Z,9.6
2022-12-22T07:59:00.410Z,9.7
2022-12-22T08:00:00.978Z,9.7
2022-12-22T08:01:00.593Z,9.6
2022-12-22T08:02:00.370Z,9.6
2022-12-22T08:03:01.007Z,9.6
2022-12-22T08:04:00.399Z,9.6
2022-12-22T08:05:01.030Z,9.6
2022-12-22T08:06:00.639Z,9.7
2022-12-22T08:07:00.239Z,9.7
2022-12-22T08:08:00.823Z,9.7
2022-12-22T08:09:00.420Z,9.7
2022-12-22T08:10:01.012Z,9.7
2022-12-22T08:11:00.602Z,9.7
2022-12-22T08:12:00.198Z,9.7
2022-12-22T08:13:00.803Z,9.7
2022-12-22T08:14:01.751Z,9.7
2022-12-22T08:15:00.517Z,9.8
2022-12-22T08:16:00.140Z,9.7
2022-12-22T08:17:00.753Z,9.7
2022-12-22T08:18:00.374Z,9.8
2022-12-22T08:19:00.925Z,9.8
2022-12-22T08:20:00.513Z,9.7
2022-12-22T08:21:00.104Z,9.8
2022-12-22T08:22:00.684Z,9.8
2022-12-22T08:23:00.304Z,9.7
2022-12-22T08:24:00.887Z,9.7
2022-12-22T08:25:00.492Z,9.7
2022-12-22T08:26:00.107Z,9.8
2022-12-22T08:27:00.644Z,9.7
2022-12-22T08:28:00.260Z,9.7
2022-12-22T08:29:00.832Z,9.7
2022-12-22T08:30:00.421Z,9.7
2022-12-22T08:31:00.996Z,9.7
2022-12-22T08:32:00.642Z,9.7
2022-12-22T08:33:00.218Z,9.6
2022-12-22T08:34:00.825Z,9.7
2022-12-22T08:35:00.427Z,9.7
2022-12-22T08:36:05.962Z,9.7
2022-12-22T08:37:00.537Z,9.7
2022-12-22T08:38:00.125Z,9.7
2022-12-22T08:39:00.745Z,9.7
2022-12-22T08:40:00.369Z,9.7
2022-12-22T08:41:00.924Z,9.7
2022-12-22T08:42:00.518Z,9.7
2022-12-22T08:43:00.135Z,9.6
2022-12-22T08:44:00.697Z,9.6
2022-12-22T08:45:00.289Z,9.6
2022-12-22T08:46:00.907Z,9.6
2022-12-22T08:47:00.602Z,9.6
2022-12-22T08:48:00.110Z,9.6
2022-12-22T08:49:00.694Z,9.6
2022-12-22T08:50:00.314Z,9.6
2022-12-22T08:51:00.863Z,9.5
2022-12-22T08:52:00.461Z,9.6
2022-12-22T08:53:01.036Z,9.6
2022-12-22T08:54:05.259Z,9.6
2022-12-22T08:55:00.188Z,9.6
2022-12-22T08:56:00.800Z,9.6
2022-12-22T08:57:00.417Z,9.6
2022-12-22T08:58:00.984Z,9.6
2022-12-22T08:59:00.612Z,9.6
2022-12-22T09:00:00.221Z,9.6
2022-12-22T09:01:00.804Z,9.6
2022-12-22T09:02:00.548Z,9.6
2022-12-22T09:03:01.169Z,9.6
2022-12-22T09:04:00.902Z,9.5
2022-12-22T09:05:00.237Z,9.5
2022-12-22T09:06:00.808Z,9.5
2022-12-22T09:07:00.404Z,9.6
2022-12-22T09:08:00.982Z,9.6
2022-12-22T09:09:00.575Z,9.6
2022-12-22T09:10:00.207Z,9.6
2022-12-22T09:11:00.718Z,9.6
2022-12-22T09:12:00.334Z,9.6
2022-12-22T09:13:00.879Z,9.6
2022-12-22T09:14:00.463Z,9.6
2022-12-22T09:15:01.058Z,9.6
2022-12-22T09:16:00.676Z,9.6
2022-12-22T09:17:00.357Z,9.6
2022-12-22T09:18:00.833Z,9.6
2022-12-22T09:19:00.436Z,9.7
2022-12-22T09:20:01.012Z,9.6
2022-12-22T09:21:00.599Z,9.6
2022-12-22T09:22:00.230Z,9.7
2022-12-22T09:23:00.760Z,9.7
2022-12-22T09:24:00.348Z,9.7
2022-12-22T09:25:00.959Z,9.8
2022-12-22T09:26:00.609Z,9.8
2022-12-22T09:27:00.153Z,9.8
2022-12-22T09:28:00.747Z,9.8
2022-12-22T09:29:00.342Z,9.9
2022-12-22T09:30:00.910Z,10
2022-12-22T09:31:00.515Z,9.9
2022-12-22T09:32:00.194Z,9.9
2022-12-22T09:33:00.673Z,9.9
2022-12-22T09:34:00.282Z,9.9
2022-12-22T09:35:00.842Z,10
2022-12-22T09:36:00.451Z,10
2022-12-22T09:37:01.026Z,9.9
2022-12-22T09:38:00.634Z,10
2022-12-22T09:39:00.230Z,10.1
2022-12-22T09:40:00.809Z,10
2022-12-22T09:41:00.426Z,10.1
2022-12-22T09:42:00.998Z,10.1
2022-12-22T09:43:00.592Z,10.2
2022-12-22T09:44:00.204Z,10.2
2022-12-22T09:45:00.775Z,10.2
2022-12-22T09:46:00.428Z,10.3
2022-12-22T09:47:00.956Z,10.2
2022-12-22T09:48:00.544Z,10.2
2022-12-22T09:49:00.148Z,10.3
2022-12-22T09:50:00.718Z,10.3
2022-12-22T09:51:00.308Z,10.3
2022-12-22T09:52:00.879Z,10.3
2022-12-22T09:53:00.480Z,10.3
2022-12-22T09:54:01.043Z,10.3
2022-12-22T09:55:00.657Z,10.3
2022-12-22T09:56:00.257Z,10.4
2022-12-22T09:57:00.846Z,10.3
2022-12-22T09:58:00.456Z,10.3
2022-12-22T09:59:01.027Z,10.3
2022-12-22T10:00:00.667Z,10.3
2022-12-22T10:01:00.329Z,10.4
2022-12-22T10:02:00.953Z,10.4
2022-12-22T10:03:00.556Z,10.4
2022-12-22T10:04:01.043Z,10.3
2022-12-22T10:05:00.796Z,10.2
2022-12-22T10:06:00.324Z,10.2
2022-12-22T10:07:00.889Z,10.2
2022-12-22T10:08:00.478Z,10
2022-12-22T10:09:00.062Z,10.1
2022-12-22T10:10:00.667Z,10.1
2022-12-22T10:11:00.256Z,10.1
2022-12-22T10:12:00.833Z,10.1
2022-12-22T10:13:00.427Z,10.1
2022-12-22T10:14:01.011Z,10.1
2022-12-22T10:15:00.618Z,10.2
2022-12-22T10:16:00.250Z,10.2
2022-12-22T10:17:00.882Z,10.2
2022-12-22T10:18:00.452Z,10.1
2022-12-22T10:19:01.064Z,10.1
2022-12-22T10:20:00.684Z,10.1
2022-12-22T10:21:00.269Z,10
2022-12-22T10:22:00.855Z,10
2022-12-22T10:23:00.457Z,9.9
2022-12-22T10:24:01.052Z,9.8
2022-12-22T10:25:00.642Z,9.9
2022-12-22T10:26:29.009Z,9.8
2022-12-22T10:27:00.841Z,9.8
2022-12-22T10:28:00.426Z,9.8
2022-12-22T10:29:01.036Z,9.8
2022-12-22T10:30:00.632Z,9.9
2022-12-22T10:31:00.217Z,9.9
2022-12-22T10:32:00.968Z,9.8
2022-12-22T10:33:00.449Z,9.7
2022-12-22T10:34:01.053Z,9.7
2022-12-22T10:35:00.658Z,9.7
2022-12-22T10:36:00.253Z,9.7
2022-12-22T10:37:00.854Z,9.7
2022-12-22T10:38:00.442Z,9.7
2022-12-22T10:39:01.039Z,9.6
2022-12-22T10:40:00.762Z,9.7
2022-12-22T10:41:02.556Z,9.7
2022-12-22T10:42:00.830Z,9.7
2022-12-22T10:43:00.430Z,9.6
2022-12-22T10:44:01.013Z,9.6
2022-12-22T10:45:00.624Z,9.7
2022-12-22T10:46:00.329Z,9.7
2022-12-22T10:47:00.830Z,9.7
2022-12-22T10:48:00.551Z,9.7
2022-12-22T10:49:00.999Z,9.7
2022-12-22T10:51:00.154Z,9.7
2022-12-22T10:52:00.724Z,9.7
2022-12-22T10:53:00.317Z,9.6
2022-12-22T10:54:00.887Z,9.6
2022-12-22T10:55:00.483Z,9.5
2022-12-22T10:56:00.060Z,9.4
2022-12-22T10:57:00.658Z,9.4
2022-12-22T10:58:05.220Z,9.3
2022-12-22T10:59:00.816Z,9.3
2022-12-22T11:00:00.422Z,9.3
2022-12-22T11:01:01.048Z,9.2
2022-12-22T11:02:00.834Z,9.2
2022-12-22T11:03:00.664Z,9.2
2022-12-22T11:04:00.519Z,9.2
2022-12-22T11:05:00.173Z,9.1
2022-12-22T11:06:00.740Z,9.1
2022-12-22T11:07:00.344Z,9.1
2022-12-22T11:08:00.918Z,9.1
2022-12-22T11:09:23.967Z,9.1
2022-12-22T11:10:00.137Z,9.1
2022-12-22T11:11:00.689Z,9.1
2022-12-22T11:12:00.295Z,9.1
2022-12-22T11:13:00.890Z,9.1
2022-12-22T11:14:00.483Z,9.2
2022-12-22T11:15:01.072Z,9.2
2022-12-22T11:16:00.678Z,9.3
2022-12-22T11:17:00.290Z,9.3
2022-12-22T11:18:00.861Z,9.3
2022-12-22T11:19:00.457Z,9.4
2022-12-22T11:20:01.062Z,9.4
2022-12-22T11:21:00.664Z,9.4
2022-12-22T11:22:00.251Z,9.3
2022-12-22T11:23:00.833Z,9.3
2022-12-22T11:24:00.425Z,9.4
2022-12-22T11:25:01.008Z,9.4
2022-12-22T11:26:00.612Z,9.4
2022-12-22T11:27:00.196Z,9.4
2022-12-22T11:28:00.816Z,9.5
2022-12-22T11:29:00.403Z,9.5
2022-12-22T11:30:00.994Z,9.6
2022-12-22T11:31:00.709Z,9.7
2022-12-22T11:32:00.229Z,9.7
2022-12-22T11:33:00.813Z,9.8
2022-12-22T11:34:00.397Z,9.8
2022-12-22T11:35:00.986Z,9.9
2022-12-22T11:36:00.616Z,9.9
2022-12-22T11:37:00.233Z,10
2022-12-22T11:38:00.778Z,10.1
2022-12-22T11:39:00.368Z,10.2
2022-12-22T11:40:00.947Z,10.2
2022-12-22T11:41:00.534Z,10.3
2022-12-22T11:42:00.135Z,10.3
2022-12-22T11:43:00.698Z,10.5
2022-12-22T11:44:00.302Z,10.5
2022-12-22T11:45:00.884Z,10.7
2022-12-22T11:46:00.548Z,10.8
2022-12-22T11:47:01.106Z,10.8
2022-12-22T11:48:00.726Z,10.7
2022-12-22T11:49:00.301Z,10.6
2022-12-22T11:50:04.504Z,10.5
2022-12-22T11:51:15.572Z,10.5
2022-12-22T11:52:01.016Z,10.4
2022-12-22T11:53:00.622Z,10.3
2022-12-22T11:54:04.147Z,10.3
2022-12-22T11:55:00.776Z,10.3
2022-12-22T11:56:00.383Z,10.3
2022-12-22T11:57:00.983Z,10.4
2022-12-22T11:58:00.571Z,10.4
2022-12-22T11:59:00.152Z,10.3
2022-12-22T12:00:00.744Z,10.4
2022-12-22T12:01:22.197Z,10.4
2022-12-22T12:02:00.947Z,10.3
2022-12-22T12:03:00.650Z,10.1
2022-12-22T12:04:00.209Z,10
2022-12-22T12:05:00.747Z,10
2022-12-22T12:06:00.338Z,9.9
2022-12-22T12:07:00.938Z,9.8
2022-12-22T12:08:00.577Z,9.7
2022-12-22T12:09:00.138Z,9.7
2022-12-22T12:10:00.712Z,9.6
2022-12-22T12:11:00.305Z,9.6
2022-12-22T12:12:00.888Z,9.7
2022-12-22T12:13:00.476Z,9.7
2022-12-22T12:14:01.070Z,9.7
2022-12-22T12:15:00.659Z,9.7
2022-12-22T12:16:00.308Z,9.7
2022-12-22T12:17:00.819Z,9.7
2022-12-22T12:18:00.962Z,9.7
2022-12-22T12:19:00.576Z,9.8
2022-12-22T12:20:00.209Z,9.8
2022-12-22T12:21:00.796Z,9.8
2022-12-22T12:22:00.389Z,9.8
2022-12-22T12:23:00.958Z,9.8
2022-12-22T12:24:00.592Z,9.8
2022-12-22T12:25:00.165Z,9.8
2022-12-22T12:26:00.719Z,9.9
2022-12-22T12:27:00.318Z,9.9
2022-12-22T12:28:00.906Z,9.9
2022-12-22T12:29:00.562Z,9.9
2022-12-22T12:30:28.377Z,9.9
2022-12-22T12:31:00.713Z,9.9
2022-12-22T12:32:00.369Z,9.9
2022-12-22T12:33:00.874Z,9.9
2022-12-22T12:34:00.486Z,9.8
2022-12-22T12:35:01.058Z,9.8
2022-12-22T12:36:00.653Z,9.8
2022-12-22T12:37:00.248Z,9.8
2022-12-22T12:38:00.829Z,9.8
2022-12-22T12:39:08.980Z,9.8
2022-12-22T12:40:01.021Z,9.8
2022-12-22T12:41:00.624Z,9.6
2022-12-22T12:42:00.235Z,9.6
2022-12-22T12:43:00.814Z,9.7
2022-12-22T12:44:00.405Z,9.7
2022-12-22T12:45:01.014Z,9.6
2022-12-22T12:46:00.626Z,9.6
2022-12-22T12:47:00.372Z,9.6
2022-12-22T12:48:00.810Z,9.5
2022-12-22T12:49:00.404Z,9.5
2022-12-22T12:50:01.044Z,9.4
2022-12-22T12:51:00.674Z,9.4
2022-12-22T12:52:00.231Z,9.4
2022-12-22T12:53:00.816Z,9.4
2022-12-22T12:54:00.408Z,9.4
2022-12-22T12:55:00.986Z,9.4
2022-12-22T12:56:00.626Z,9.3
2022-12-22T12:57:00.175Z,9.4
2022-12-22T12:58:00.738Z,9.3
2022-12-22T12:59:00.339Z,9.3
2022-12-22T13:00:00.910Z,9.4
2022-12-22T13:01:00.522Z,9.5
2022-12-22T13:02:00.446Z,9.6
2022-12-22T13:03:00.393Z,9.7
2022-12-22T13:04:03.410Z,9.7
2022-12-22T13:05:00.659Z,9.8
2022-12-22T13:06:00.246Z,9.8
2022-12-22T13:07:00.853Z,9.7
2022-12-22T13:08:00.440Z,9.8
2022-12-22T13:09:14.280Z,9.8
2022-12-22T13:10:00.557Z,9.7
2022-12-22T13:11:00.154Z,9.8
2022-12-22T13:12:12.031Z,9.7
2022-12-22T13:13:00.278Z,9.6
2022-12-22T13:14:00.919Z,9.5
2022-12-22T13:15:00.539Z,9.5
2022-12-22T13:16:00.278Z,9.5
2022-12-22T13:17:00.758Z,9.6
2022-12-22T13:18:00.560Z,9.6
2022-12-22T13:19:00.929Z,9.6
2022-12-22T13:20:00.526Z,9.6
2022-12-22T13:21:19.111Z,9.5
2022-12-22T13:22:00.675Z,9.5
2022-12-22T13:23:00.264Z,9.4
2022-12-22T13:24:29.496Z,9.4
2022-12-22T13:25:00.384Z,9.4
2022-12-22T13:26:00.994Z,9.3
2022-12-22T13:27:00.600Z,9.2
2022-12-22T13:28:00.214Z,9.2
2022-12-22T13:29:00.808Z,9.2
2022-12-22T13:30:00.431Z,9.2
2022-12-22T13:31:01.026Z,9.2
2022-12-22T13:32:00.740Z,9.2
2022-12-22T13:33:00.236Z,9.2
2022-12-22T13:34:00.798Z,9.2
2022-12-22T13:36:00.948Z,9.2
2022-12-22T13:37:00.545Z,9.2
2022-12-22T13:38:00.195Z,9.3
2022-12-22T13:39:00.704Z,9.4
2022-12-22T13:40:00.291Z,9.4
2022-12-22T13:41:00.875Z,9.5
2022-12-22T13:42:00.534Z,9.5
2022-12-22T13:43:01.077Z,9.5
2022-12-22T13:44:00.697Z,9.5
2022-12-22T13:45:00.278Z,9.5
2022-12-22T13:46:00.866Z,9.6
2022-12-22T13:47:00.464Z,9.6
2022-12-22T13:48:01.051Z,9.6
2022-12-22T13:49:00.645Z,9.6
2022-12-22T13:50:08.623Z,9.6